aviador You're here:

OIBJ Decoded Metar

in _UNIDENTIFIED
Report Time2018-07-20 06:00:00
UTC Time2018-07-20 06:41:49
Flight Rules vfr VFR
Wind290° at 04 kt
W.Decomp.*RWY 29: 4.0 kt HW 0.1 kt LCW
W.Rank290° ranks 16
Current wind is below 290° avg. (6.8)
Visibility8000 m
Phenomena:N/A
Clouds:N/A
Expected CloudBase > 12,000 ft AGL from Temp-Dew spread
CeilingNone
Temp38°C
Dew Point08°C (16% RH)
Heat Index35.9°C
AAT36.0°C
QNH1002 hPa
Raw Report
METAR OIBJ 200600Z 29004KT 8000 NSC 38/08 Q1002=

Extra information for OIBJ:More info

Metar Taf Metar & Taf Last 4 Metars F.Rules Stats Wind Profile Meteogram Temp Stats Metar ALERT Operation Metar Decoded Social comments